New Jersey Responder — WBO8578 — position and weather

sailwx.info

Track history (hours):
 
Tides and Currents Weather Stations Pressure Air Temp Water Temp Dewpoint Dewpoint Depression Visibility Wind Speed Wind Dir Waves Ship Positions

New Jersey Responder

Owner: MARINE SPILL RESPONSE CORP, HERNDON, VA. More information available from US FCC via Universal Licensing System and Coast Guard Vessel Documentation Center.

Last reported at 2017-Jun-22 12:24 UTC. Time now 2017-Jun-26 05:10 UTC.
Position N 40°32' W 074°15'.

; draft 4 m.

Type: Pollution control. MMSI: 366594000.

Date/timePositionNaut miles runAvg speedWind from/ knotsBaromVisibWave heightAir tempDewpointWater temp
2017-Jun-22 12:24N 40°32' W 074°15'0 0.0
2017-Jun-22 12:00N 40°32' W 074°15'0 0.0
2017-Jun-22 11:15N 40°32' W 074°15'0 0.0
2017-Jun-22 10:36N 40°32' W 074°15'0 0.0
2017-Jun-22 10:24N 40°32' W 074°15'0 0.0
2017-Jun-22 10:00N 40°32' W 074°15'0 0.0
2017-Jun-22 09:24N 40°32' W 074°15'0 0.0
2017-Jun-22 08:54N 40°32' W 074°15'0 0.0
2017-Jun-22 08:27N 40°32' W 074°15'0 0.0
2017-Jun-21 12:09N 40°32' W 074°15'0 0.0
2017-Jun-21 11:57N 40°32' W 074°15'0 0.0
2017-Jun-21 11:30N 40°32' W 074°15'0 0.0
2017-Jun-21 11:00N 40°32' W 074°15'0 0.0
2017-Jun-21 10:24N 40°32' W 074°15'0 0.0
2017-Jun-21 10:00N 40°32' W 074°15'  
2017-Jun-16 17:00N 40°29' W 074°06'611.4
2017-Jun-16 16:30N 40°29' W 073°59'611.6
2017-Jun-16 15:59N 40°25' W 073°53'7 7.4
2017-Jun-16 15:03N 40°29' W 074°00'1 9.2
2017-Jun-16 14:59N 40°29' W 074°01'11 1.2
2017-Jun-16 05:36N 40°32' W 074°15'0 0.1
2017-Jun-16 05:30N 40°32' W 074°15'0 0.0
2017-Jun-16 05:00N 40°32' W 074°15'0 0.0
2017-Jun-16 04:30N 40°32' W 074°15'0 0.0
2017-Jun-16 03:57N 40°32' W 074°15'0 0.0
2017-Jun-16 03:30N 40°32' W 074°15'0 0.0
2017-Jun-16 02:56N 40°32' W 074°15'0 0.0
2017-Jun-16 00:44N 40°32' W 074°15'1 0.1
2017-Jun-15 17:40N 40°33' W 074°15'2 9.0
2017-Jun-15 17:30N 40°33' W 074°13'4 6.9
2017-Jun-15 16:59N 40°37' W 074°12'3 7.0
2017-Jun-15 16:30N 40°39' W 074°08'510.1
2017-Jun-15 16:00N 40°41' W 074°02'3 6.4
2017-Jun-15 15:30N 40°44' W 074°01'4 8.0
2017-Jun-15 15:00N 40°47' W 073°59'9 9.3
2017-Jun-15 14:00N 40°39' W 074°05'5 9.4
2017-Jun-15 13:30N 40°39' W 074°11'4 8.6
2017-Jun-15 12:59N 40°34' W 074°13'3 1.8
2017-Jun-15 11:11N 40°32' W 074°15'  
Track history (hours):
 
Tides and Currents Weather Stations Pressure Air Temp Water Temp Dewpoint Dewpoint Depression Visibility Wind Speed Wind Dir Waves Ship Positions

New Jersey Responder

Owner: MARINE SPILL RESPONSE CORP, HERNDON, VA. More information available from US FCC via Universal Licensing System and Coast Guard Vessel Documentation Center.

Last reported at 2017-Jun-22 12:24 UTC. Time now 2017-Jun-26 05:10 UTC.
Position N 40°32' W 074°15'.

; draft 4 m.

Type: Pollution control. MMSI: 366594000.

Date/timePositionNaut miles runAvg speedWind from/ knotsBaromVisibWave heightAir tempDewpointWater temp
2017-Jun-22 12:24N 40°32' W 074°15'0 0.0
2017-Jun-22 12:00N 40°32' W 074°15'0 0.0
2017-Jun-22 11:15N 40°32' W 074°15'0 0.0
2017-Jun-22 10:36N 40°32' W 074°15'0 0.0
2017-Jun-22 10:24N 40°32' W 074°15'0 0.0
2017-Jun-22 10:00N 40°32' W 074°15'0 0.0
2017-Jun-22 09:24N 40°32' W 074°15'0 0.0
2017-Jun-22 08:54N 40°32' W 074°15'0 0.0
2017-Jun-22 08:27N 40°32' W 074°15'0 0.0
2017-Jun-21 12:09N 40°32' W 074°15'0 0.0
2017-Jun-21 11:57N 40°32' W 074°15'0 0.0
2017-Jun-21 11:30N 40°32' W 074°15'0 0.0
2017-Jun-21 11:00N 40°32' W 074°15'0 0.0
2017-Jun-21 10:24N 40°32' W 074°15'0 0.0
2017-Jun-21 10:00N 40°32' W 074°15'  
2017-Jun-16 17:00N 40°29' W 074°06'611.4
2017-Jun-16 16:30N 40°29' W 073°59'611.6
2017-Jun-16 15:59N 40°25' W 073°53'7 7.4
2017-Jun-16 15:03N 40°29' W 074°00'1 9.2
2017-Jun-16 14:59N 40°29' W 074°01'11 1.2
2017-Jun-16 05:36N 40°32' W 074°15'0 0.1
2017-Jun-16 05:30N 40°32' W 074°15'0 0.0
2017-Jun-16 05:00N 40°32' W 074°15'0 0.0
2017-Jun-16 04:30N 40°32' W 074°15'0 0.0
2017-Jun-16 03:57N 40°32' W 074°15'0 0.0
2017-Jun-16 03:30N 40°32' W 074°15'0 0.0
2017-Jun-16 02:56N 40°32' W 074°15'0 0.0
2017-Jun-16 00:44N 40°32' W 074°15'1 0.1
2017-Jun-15 17:40N 40°33' W 074°15'2 9.0
2017-Jun-15 17:30N 40°33' W 074°13'4 6.9
2017-Jun-15 16:59N 40°37' W 074°12'3 7.0
2017-Jun-15 16:30N 40°39' W 074°08'510.1
2017-Jun-15 16:00N 40°41' W 074°02'3 6.4
2017-Jun-15 15:30N 40°44' W 074°01'4 8.0
2017-Jun-15 15:00N 40°47' W 073°59'9 9.3
2017-Jun-15 14:00N 40°39' W 074°05'5 9.4
2017-Jun-15 13:30N 40°39' W 074°11'4 8.6
2017-Jun-15 12:59N 40°34' W 074°13'3 1.8
2017-Jun-15 11:11N 40°32' W 074°15'  

Dump ship's entire track history